Terminal Aerodrome Forecast
Issued by NWS Wilmington, OH

Current Version | Previous Version | Graphics & Text | Print | Product List | Glossary On
Versions: 1 2 3 4 5 6 7 8 9 10 11 12 13 14 15 16 17 18 19 20 21 22 23 24 25 26 27 28 29 30 31
279
FTUS41 KILN 131458 AAB
TAFCVG
TAF AMD
KCVG 131458Z 1315/1418 04009KT P6SM OVC018
     FM131700 04010KT P6SM SCT020 BKN150
     FM132300 06012KT P6SM -RA SCT015 OVC040
     FM140400 07010KT P6SM -FZRA OVC015
     FM141300 08005KT P6SM VCSH OVC012=

USA.gov is the U.S. government's official web portal to all federal, state and local government web resources and services.